Current Conditions
Nubi Sparse
Nuvoloso




Pressure
1022.92 (mb) - 30.21 (inHG)
Visibility

10.0 (km) - 6.2 (miles)
   Temperature
16  °C
61°F
14  °C
Dewpoint
88  %
 Humidity
   Wind Speed
3  km/h
2  kts
2  mph
0.9  m/s
   Wind Direction
 150°
South South
East
   Airport Data
LIRQ
Location Peretola Airport 29.50 km (18.33 mi)
Metar :LIRQ 221750Z 15002KT 9999 SCT060 16/14 Q1023
Thu 22nd October 18:50 pm
   Raw Metar Info
Raw METAR is the most common format in the world for the transmission of observational weather data. It is highly standardized through the International Civil Aviation Organization (ICAO), which allows it to be understood throughout most of the world.
   API Info
Data Provided by
https://www.checkwx.com/weather/LIRQ
   © Info
CSS/SVG/PHP scripts were developed by weather34.com for use in the weather34 template © 2015-2020

Guide Info provided by Metar-Wikipedia